sensor_id;sensor_type;location;lat;lon;timestamp;pressure;altitude;pressure_sealevel;temperature;humidity
39699;BME280;25372;50.582;12.250;2023-04-24T00:01:25;98576.72;;;8.89;87.66
39699;BME280;25372;50.582;12.250;2023-04-24T00:11:46;98571.16;;;9.05;87.33
39699;BME280;25372;50.582;12.250;2023-04-24T00:22:08;98593.88;;;9.39;86.56
39699;BME280;25372;50.582;12.250;2023-04-24T00:32:30;98586.38;;;9.46;86.42
39699;BME280;25372;50.582;12.250;2023-04-24T00:42:52;98578.06;;;9.29;86.55
39699;BME280;25372;50.582;12.250;2023-04-24T00:53:13;98569.97;;;9.32;86.41
39699;BME280;25372;50.582;12.250;2023-04-24T01:03:35;98569.47;;;9.27;86.64
39699;BME280;25372;50.582;12.250;2023-04-24T01:13:57;98569.72;;;9.01;86.90
39699;BME280;25372;50.582;12.250;2023-04-24T01:24:20;98564.56;;;8.65;88.10
39699;BME280;25372;50.582;12.250;2023-04-24T01:34:40;98570.69;;;9.00;86.93
39699;BME280;25372;50.582;12.250;2023-04-24T01:45:04;98569.47;;;9.38;86.31
39699;BME280;25372;50.582;12.250;2023-04-24T01:55:25;98566.63;;;9.42;85.95
39699;BME280;25372;50.582;12.250;2023-04-24T02:05:47;98557.66;;;9.44;86.28
39699;BME280;25372;50.582;12.250;2023-04-24T02:16:08;98564.25;;;9.27;87.07
39699;BME280;25372;50.582;12.250;2023-04-24T02:26:30;98567.69;;;9.28;86.77
39699;BME280;25372;50.582;12.250;2023-04-24T02:36:51;98564.81;;;9.42;86.92
39699;BME280;25372;50.582;12.250;2023-04-24T02:47:14;98561.41;;;9.30;86.93
39699;BME280;25372;50.582;12.250;2023-04-24T02:57:35;98554.38;;;9.08;87.20
39699;BME280;25372;50.582;12.250;2023-04-24T03:07:58;98542.31;;;9.40;86.12
39699;BME280;25372;50.582;12.250;2023-04-24T03:18:18;98548.00;;;9.56;84.00
39699;BME280;25372;50.582;12.250;2023-04-24T03:28:42;98548.72;;;9.58;83.23
39699;BME280;25372;50.582;12.250;2023-04-24T03:39:03;98555.31;;;9.85;81.82
39699;BME280;25372;50.582;12.250;2023-04-24T03:49:28;98554.94;;;10.23;79.14
39699;BME280;25372;50.582;12.250;2023-04-24T03:59:49;98573.78;;;10.49;77.46
39699;BME280;25372;50.582;12.250;2023-04-24T04:10:13;98577.16;;;10.61;76.31
39699;BME280;25372;50.582;12.250;2023-04-24T04:20:34;98574.16;;;10.66;76.53
39699;BME280;25372;50.582;12.250;2023-04-24T04:30:57;98579.41;;;10.66;75.48
39699;BME280;25372;50.582;12.250;2023-04-24T04:41:18;98567.94;;;10.67;74.56
39699;BME280;25372;50.582;12.250;2023-04-24T04:51:42;98577.28;;;10.81;74.95
39699;BME280;25372;50.582;12.250;2023-04-24T05:02:04;98582.81;;;11.09;73.16
39699;BME280;25372;50.582;12.250;2023-04-24T05:12:27;98595.28;;;11.47;71.98
39699;BME280;25372;50.582;12.250;2023-04-24T05:22:47;98591.19;;;11.74;70.53
39699;BME280;25372;50.582;12.250;2023-04-24T05:33:11;98595.53;;;12.05;69.71
39699;BME280;25372;50.582;12.250;2023-04-24T05:43:33;98591.97;;;12.06;69.10
39699;BME280;25372;50.582;12.250;2023-04-24T05:53:56;98585.00;;;12.64;67.06
39699;BME280;25372;50.582;12.250;2023-04-24T06:04:18;98587.97;;;12.89;67.00
39699;BME280;25372;50.582;12.250;2023-04-24T06:14:42;98595.00;;;13.08;65.25
39699;BME280;25372;50.582;12.250;2023-04-24T06:25:26;98598.91;;;13.32;65.68
39699;BME280;25372;50.582;12.250;2023-04-24T06:35:48;98606.00;;;13.32;65.40
39699;BME280;25372;50.582;12.250;2023-04-24T06:46:09;98606.13;;;13.68;63.89
39699;BME280;25372;50.582;12.250;2023-04-24T06:56:56;98611.69;;;14.29;61.35
39699;BME280;25372;50.582;12.250;2023-04-24T07:07:17;98613.41;;;15.01;61.76
39699;BME280;25372;50.582;12.250;2023-04-24T07:17:40;98624.44;;;14.16;62.84
39699;BME280;25372;50.582;12.250;2023-04-24T07:28:03;98627.75;;;14.54;60.69
39699;BME280;25372;50.582;12.250;2023-04-24T07:38:25;98627.81;;;14.62;61.19
39699;BME280;25372;50.582;12.250;2023-04-24T07:48:46;98622.94;;;15.20;58.80
39699;BME280;25372;50.582;12.250;2023-04-24T07:59:08;98639.63;;;14.94;59.82
39699;BME280;25372;50.582;12.250;2023-04-24T08:09:30;98632.16;;;15.51;60.34
39699;BME280;25372;50.582;12.250;2023-04-24T08:19:52;98642.47;;;16.05;57.51
39699;BME280;25372;50.582;12.250;2023-04-24T08:30:18;98641.69;;;15.78;58.37
39699;BME280;25372;50.582;12.250;2023-04-24T08:40:41;98646.31;;;15.76;57.98
39699;BME280;25372;50.582;12.250;2023-04-24T08:51:06;98648.97;;;16.44;55.35
39699;BME280;25372;50.582;12.250;2023-04-24T09:01:31;98661.50;;;16.17;55.59
39699;BME280;25372;50.582;12.250;2023-04-24T09:11:53;98653.38;;;16.11;52.62
39699;BME280;25372;50.582;12.250;2023-04-24T09:22:16;98648.63;;;16.23;52.36
39699;BME280;25372;50.582;12.250;2023-04-24T09:32:38;98664.00;;;16.19;55.72
39699;BME280;25372;50.582;12.250;2023-04-24T09:43:01;98649.44;;;16.23;53.84
39699;BME280;25372;50.582;12.250;2023-04-24T09:53:24;98657.88;;;16.18;54.15
39699;BME280;25372;50.582;12.250;2023-04-24T10:03:47;98650.25;;;16.15;54.77
39699;BME280;25372;50.582;12.250;2023-04-24T10:14:09;98649.78;;;16.20;54.75
39699;BME280;25372;50.582;12.250;2023-04-24T10:24:33;98637.38;;;16.78;52.77
39699;BME280;25372;50.582;12.250;2023-04-24T10:34:54;98631.09;;;16.88;52.84
39699;BME280;25372;50.582;12.250;2023-04-24T10:45:17;98632.56;;;16.74;52.22
39699;BME280;25372;50.582;12.250;2023-04-24T10:55:46;98634.38;;;16.40;53.09
39699;BME280;25372;50.582;12.250;2023-04-24T11:06:09;98641.28;;;16.08;56.79
39699;BME280;25372;50.582;12.250;2023-04-24T11:16:30;98645.34;;;15.08;57.01
39699;BME280;25372;50.582;12.250;2023-04-24T11:26:56;98657.75;;;15.77;55.42
39699;BME280;25372;50.582;12.250;2023-04-24T11:37:17;98641.03;;;17.91;52.34
39699;BME280;25372;50.582;12.250;2023-04-24T11:47:40;98630.69;;;18.04;52.09
39699;BME280;25372;50.582;12.250;2023-04-24T11:58:01;98638.19;;;16.96;51.61
39699;BME280;25372;50.582;12.250;2023-04-24T12:08:29;98656.69;;;15.61;53.50
39699;BME280;25372;50.582;12.250;2023-04-24T12:18:51;98659.75;;;15.14;50.39
39699;BME280;25372;50.582;12.250;2023-04-24T12:29:19;98650.47;;;16.72;47.68
39699;BME280;25372;50.582;12.250;2023-04-24T12:39:44;98658.19;;;16.15;48.61
39699;BME280;25372;50.582;12.250;2023-04-24T12:50:08;98670.31;;;16.34;47.83
39699;BME280;25372;50.582;12.250;2023-04-24T13:00:29;98672.16;;;16.67;46.36
39699;BME280;25372;50.582;12.250;2023-04-24T13:10:51;98650.78;;;16.77;44.91
39699;BME280;25372;50.582;12.250;2023-04-24T13:21:13;98645.00;;;16.73;42.13
39699;BME280;25372;50.582;12.250;2023-04-24T13:31:35;98662.53;;;16.33;44.49
39699;BME280;25372;50.582;12.250;2023-04-24T13:41:56;98669.28;;;16.11;42.90
39699;BME280;25372;50.582;12.250;2023-04-24T13:52:19;98670.66;;;15.80;42.03
39699;BME280;25372;50.582;12.250;2023-04-24T14:02:39;98646.28;;;18.07;40.47
39699;BME280;25372;50.582;12.250;2023-04-24T14:13:01;98649.41;;;18.02;37.90
39699;BME280;25372;50.582;12.250;2023-04-24T14:23:22;98634.88;;;17.90;41.10
39699;BME280;25372;50.582;12.250;2023-04-24T14:33:44;98633.03;;;17.99;39.47
39699;BME280;25372;50.582;12.250;2023-04-24T14:44:05;98639.94;;;17.77;40.13
39699;BME280;25372;50.582;12.250;2023-04-24T14:54:27;98634.03;;;18.68;38.87
39699;BME280;25372;50.582;12.250;2023-04-24T15:04:48;98652.56;;;17.26;42.12
39699;BME280;25372;50.582;12.250;2023-04-24T15:15:10;98677.41;;;16.17;42.06
39699;BME280;25372;50.582;12.250;2023-04-24T15:25:31;98671.94;;;15.68;41.92
39699;BME280;25372;50.582;12.250;2023-04-24T15:35:53;98686.22;;;14.95;42.66
39699;BME280;25372;50.582;12.250;2023-04-24T15:46:14;98674.75;;;14.87;43.03
39699;BME280;25372;50.582;12.250;2023-04-24T15:56:37;98700.50;;;14.30;44.92
39699;BME280;25372;50.582;12.250;2023-04-24T16:06:58;98705.81;;;14.20;48.22
39699;BME280;25372;50.582;12.250;2023-04-24T16:17:20;98709.50;;;14.09;48.63
39699;BME280;25372;50.582;12.250;2023-04-24T16:27:42;98707.03;;;14.26;46.52
39699;BME280;25372;50.582;12.250;2023-04-24T16:38:04;98744.28;;;13.67;47.86
39699;BME280;25372;50.582;12.250;2023-04-24T16:48:24;98745.19;;;13.28;50.64
39699;BME280;25372;50.582;12.250;2023-04-24T16:58:47;98761.81;;;13.38;48.33
39699;BME280;25372;50.582;12.250;2023-04-24T17:09:08;98769.25;;;13.73;48.96
39699;BME280;25372;50.582;12.250;2023-04-24T17:19:32;98771.72;;;13.07;50.98
39699;BME280;25372;50.582;12.250;2023-04-24T17:29:53;98796.25;;;12.17;54.94
39699;BME280;25372;50.582;12.250;2023-04-24T17:40:15;98816.31;;;11.87;56.76
39699;BME280;25372;50.582;12.250;2023-04-24T17:50:36;98833.06;;;11.86;54.74
39699;BME280;25372;50.582;12.250;2023-04-24T18:00:58;98844.19;;;11.68;55.12
39699;BME280;25372;50.582;12.250;2023-04-24T18:11:20;98867.28;;;11.32;56.61
39699;BME280;25372;50.582;12.250;2023-04-24T18:21:42;98882.53;;;10.61;57.07
39699;BME280;25372;50.582;12.250;2023-04-24T18:32:03;98895.50;;;10.17;59.64
39699;BME280;25372;50.582;12.250;2023-04-24T18:42:26;98909.34;;;9.97;58.54
39699;BME280;25372;50.582;12.250;2023-04-24T18:52:46;98926.69;;;9.75;57.98
39699;BME280;25372;50.582;12.250;2023-04-24T19:03:08;98942.69;;;9.94;57.68
39699;BME280;25372;50.582;12.250;2023-04-24T19:13:29;98962.59;;;9.97;58.03
39699;BME280;25372;50.582;12.250;2023-04-24T19:23:52;98972.09;;;9.87;59.33
39699;BME280;25372;50.582;12.250;2023-04-24T19:34:15;98980.75;;;9.40;61.18
39699;BME280;25372;50.582;12.250;2023-04-24T19:44:37;98983.16;;;9.06;64.96
39699;BME280;25372;50.582;12.250;2023-04-24T19:54:58;98965.00;;;8.65;65.06
39699;BME280;25372;50.582;12.250;2023-04-24T20:05:20;98977.03;;;8.81;63.73
39699;BME280;25372;50.582;12.250;2023-04-24T20:15:40;98982.44;;;9.04;62.99
39699;BME280;25372;50.582;12.250;2023-04-24T20:26:02;98992.03;;;9.16;62.61
39699;BME280;25372;50.582;12.250;2023-04-24T20:36:23;98993.03;;;8.89;63.85
39699;BME280;25372;50.582;12.250;2023-04-24T20:46:45;98991.41;;;8.62;64.88
39699;BME280;25372;50.582;12.250;2023-04-24T20:57:06;98995.97;;;8.33;65.74
39699;BME280;25372;50.582;12.250;2023-04-24T21:07:28;99010.25;;;8.01;66.50
39699;BME280;25372;50.582;12.250;2023-04-24T21:17:49;98999.22;;;8.49;65.64
39699;BME280;25372;50.582;12.250;2023-04-24T21:28:12;99001.09;;;8.47;66.00
39699;BME280;25372;50.582;12.250;2023-04-24T21:38:33;98992.09;;;8.38;64.96
39699;BME280;25372;50.582;12.250;2023-04-24T21:48:55;98979.09;;;7.98;66.98
39699;BME280;25372;50.582;12.250;2023-04-24T21:59:15;98975.44;;;8.01;67.73
39699;BME280;25372;50.582;12.250;2023-04-24T22:09:38;98973.97;;;7.96;67.21
39699;BME280;25372;50.582;12.250;2023-04-24T22:19:59;98967.88;;;7.43;71.09
39699;BME280;25372;50.582;12.250;2023-04-24T22:30:22;98969.59;;;6.43;75.76
39699;BME280;25372;50.582;12.250;2023-04-24T22:40:43;98982.16;;;6.22;75.26
39699;BME280;25372;50.582;12.250;2023-04-24T22:51:05;98971.66;;;6.38;74.73
39699;BME280;25372;50.582;12.250;2023-04-24T23:01:26;98988.72;;;6.13;76.10
39699;BME280;25372;50.582;12.250;2023-04-24T23:11:49;99001.97;;;5.64;76.49
39699;BME280;25372;50.582;12.250;2023-04-24T23:22:09;98999.09;;;5.68;77.19
39699;BME280;25372;50.582;12.250;2023-04-24T23:32:31;98984.09;;;6.19;75.74
39699;BME280;25372;50.582;12.250;2023-04-24T23:42:52;98981.63;;;6.46;77.26
39699;BME280;25372;50.582;12.250;2023-04-24T23:53:14;98967.81;;;6.73;76.08
